Time;durP1;ratioP1;P1;durP2;ratioP2;P2;SDS_P1;SDS_P2;PMS_P1;PMS_P2;Temp;Humidity;BMP_temperature;BMP_pressure;BME280_temperature;BME280_humidity;BME280_pressure;Samples;Min_cycle;Max_cycle;Signal;HPM_P1;HPM_P2
2021/04/03 00:02:27;;;;;;;9.85;7.43;;;9.90;57.60;;;;;;5103666;28;27387;-53
2021/04/03 00:05:12;;;;;;;9.27;6.70;;;9.80;57.50;;;;;;5103766;28;27997;-48
2021/04/03 00:07:57;;;;;;;10.77;6.95;;;9.80;57.60;;;;;;5103565;28;27462;-50
2021/04/03 00:10:43;;;;;;;9.57;6.00;;;9.80;57.50;;;;;;5104095;27;27411;-52
2021/04/03 00:13:29;;;;;;;11.30;7.07;;;9.80;57.60;;;;;;5106534;28;27408;-51
2021/04/03 00:16:14;;;;;;;10.95;7.35;;;9.80;57.60;;;;;;5092039;28;27381;-53
2021/04/03 00:18:58;;;;;;;14.88;7.13;;;9.80;57.60;;;;;;5092075;28;27356;-52
2021/04/03 00:21:43;;;;;;;10.70;6.68;;;9.80;57.70;;;;;;5107768;28;27399;-51
2021/04/03 00:24:27;;;;;;;15.77;6.70;;;9.70;57.70;;;;;;5107073;28;27400;-54
2021/04/03 00:27:12;;;;;;;8.48;5.70;;;9.70;57.70;;;;;;5107232;28;27849;-51
2021/04/03 00:29:56;;;;;;;8.40;6.13;;;9.70;57.50;;;;;;5107105;28;27454;-52
2021/04/03 00:32:54;;;;;;;14.38;7.00;;;9.70;57.70;;;;;;5092172;28;27399;-53
2021/04/03 00:35:40;;;;;;;11.20;5.72;;;9.70;57.70;;;;;;5106991;28;27339;-49
2021/04/03 00:38:24;;;;;;;9.82;5.30;;;9.60;57.90;;;;;;5106709;28;27430;-53
2021/04/03 00:41:09;;;;;;;9.98;6.15;;;9.70;58.30;;;;;;5088526;28;27402;-53
2021/04/03 00:43:53;;;;;;;12.15;6.53;;;9.60;57.60;;;;;;5107034;28;27365;-55
2021/04/03 00:46:38;;;;;;;11.18;6.00;;;9.60;57.60;;;;;;5106231;28;27455;-50
2021/04/03 00:49:22;;;;;;;12.15;5.82;;;9.70;57.90;;;;;;5107072;28;27223;-55
2021/04/03 00:52:08;;;;;;;8.88;4.90;;;9.70;58.00;;;;;;5103218;28;27515;-54
2021/04/03 00:54:53;;;;;;;9.18;5.50;;;9.70;57.70;;;;;;5106748;28;27412;-53
2021/04/03 00:57:38;;;;;;;10.82;5.15;;;9.70;57.40;;;;;;5059710;28;27511;-51
2021/04/03 01:00:23;;;;;;;11.20;5.22;;;9.60;57.40;;;;;;5106418;28;27442;-54
2021/04/03 01:03:08;;;;;;;8.20;4.63;;;9.60;57.20;;;;;;5088331;28;27346;-52
2021/04/03 01:05:53;;;;;;;8.15;5.13;;;9.60;57.00;;;;;;5088373;28;27387;-54
2021/04/03 01:08:38;;;;;;;9.30;4.68;;;9.60;56.70;;;;;;5088251;28;27398;-51
2021/04/03 01:11:22;;;;;;;6.57;5.13;;;9.60;57.00;;;;;;5103236;28;27841;-50
2021/04/03 01:14:08;;;;;;;7.50;4.53;;;9.60;57.20;;;;;;5088232;28;27501;-52
2021/04/03 01:17:03;;;;;;;8.90;5.03;;;9.60;57.00;;;;;;5106464;28;27400;-52
2021/04/03 01:19:51;;;;;;;7.60;4.68;;;9.60;56.70;;;;;;5091235;28;27451;-55
2021/04/03 01:23:07;;;;;;;8.07;4.57;;;9.60;56.70;;;;;;5105513;27;27872;-53
2021/04/03 01:26:00;;;;;;;8.82;4.78;;;9.60;56.30;;;;;;5088016;28;27387;-51
2021/04/03 01:29:22;;;;;;;9.23;5.00;;;9.60;56.50;;;;;;5103338;28;27341;-55
2021/04/03 01:32:08;;;;;;;11.40;4.75;;;9.60;56.60;;;;;;5103327;28;27354;-55
2021/04/03 01:34:56;;;;;;;9.13;4.43;;;9.60;56.90;;;;;;5059294;28;27497;-54
2021/04/03 01:37:47;;;;;;;10.90;4.65;;;9.50;56.20;;;;;;5087803;28;27373;-54
2021/04/03 01:40:32;;;;;;;8.35;4.63;;;9.50;55.90;;;;;;5087413;28;27443;-53
2021/04/03 01:43:20;;;;;;;7.63;5.25;;;9.50;55.90;;;;;;5073295;28;27451;-50
2021/04/03 01:46:10;;;;;;;7.80;5.28;;;9.50;56.00;;;;;;5083121;28;27433;-55
2021/04/03 01:48:56;;;;;;;9.63;4.43;;;9.50;55.50;;;;;;5067751;28;27485;-55
2021/04/03 01:51:45;;;;;;;14.65;4.50;;;9.50;55.90;;;;;;5067207;28;27421;-51
2021/04/03 01:54:31;;;;;;;9.43;5.00;;;9.50;55.80;;;;;;5054093;28;27311;-52
2021/04/03 01:57:20;;;;;;;6.93;4.68;;;9.40;55.90;;;;;;5081296;28;27416;-56
2021/04/03 02:00:22;;;;;;;8.52;4.40;;;9.40;56.30;;;;;;5083096;28;27487;-51
2021/04/03 02:03:16;;;;;;;13.85;4.30;;;9.40;56.60;;;;;;5081928;28;27380;-54
2021/04/03 02:06:03;;;;;;;7.18;4.65;;;9.40;56.30;;;;;;5070160;28;27420;-51
2021/04/03 02:09:04;;;;;;;8.93;4.70;;;9.40;56.40;;;;;;5081509;28;27332;-54
2021/04/03 02:12:03;;;;;;;12.93;5.40;;;9.40;56.10;;;;;;5081749;28;27387;-55
2021/04/03 02:15:10;;;;;;;10.32;4.60;;;9.40;56.60;;;;;;5080974;28;27500;-55
2021/04/03 02:17:56;;;;;;;9.23;4.50;;;9.40;56.50;;;;;;5084866;28;27419;-55
2021/04/03 02:20:44;;;;;;;8.27;4.18;;;9.40;57.30;;;;;;5067328;28;27957;-55
2021/04/03 02:23:34;;;;;;;8.07;5.10;;;9.40;57.10;;;;;;5084778;28;27375;-53
2021/04/03 02:26:20;;;;;;;8.25;4.50;;;9.30;57.00;;;;;;5067963;28;27479;-52
2021/04/03 02:29:05;;;;;;;6.95;4.38;;;9.30;56.90;;;;;;5083981;28;27470;-55
2021/04/03 02:31:51;;;;;;;7.05;4.60;;;9.30;57.40;;;;;;5081633;28;27399;-55
2021/04/03 02:34:36;;;;;;;7.60;4.00;;;9.30;57.60;;;;;;5084513;28;27417;-54
2021/04/03 02:37:21;;;;;;;10.30;5.18;;;9.40;57.70;;;;;;5080789;28;27485;-55
2021/04/03 02:40:07;;;;;;;10.23;4.88;;;9.30;57.80;;;;;;5080656;28;27456;-51
2021/04/03 02:43:11;;;;;;;4.78;4.15;;;9.40;57.90;;;;;;5080586;28;27842;-53
2021/04/03 02:46:22;;;;;;;7.35;4.10;;;9.30;57.90;;;;;;5095159;28;27453;-53
2021/04/03 02:49:13;;;;;;;10.02;4.65;;;9.30;58.10;;;;;;5086562;28;27424;-53
2021/04/03 02:52:01;;;;;;;10.60;4.40;;;9.30;58.00;;;;;;5101836;28;27578;-52
2021/04/03 02:54:45;;;;;;;9.20;4.07;;;9.30;58.20;;;;;;5089758;28;27913;-51
2021/04/03 02:57:30;;;;;;;8.07;4.00;;;9.30;58.40;;;;;;5071850;28;27329;-54
2021/04/03 03:00:15;;;;;;;9.77;4.40;;;9.30;58.60;;;;;;5086686;28;27380;-55
2021/04/03 03:03:01;;;;;;;12.63;4.47;;;9.30;58.60;;;;;;5101458;28;27383;-54
2021/04/03 03:05:46;;;;;;;8.73;4.32;;;9.30;58.80;;;;;;5086419;28;27420;-54
2021/04/03 03:08:31;;;;;;;10.90;4.70;;;9.30;58.40;;;;;;5086209;28;27445;-54
2021/04/03 03:11:20;;;;;;;8.18;4.03;;;9.30;58.70;;;;;;5072889;28;27520;-51
2021/04/03 03:14:04;;;;;;;5.95;4.15;;;9.30;58.80;;;;;;5089675;28;27443;-53
2021/04/03 03:16:52;;;;;;;6.25;3.72;;;9.30;58.80;;;;;;5086270;28;27464;-52
2021/04/03 03:19:37;;;;;;;9.73;4.57;;;9.30;58.70;;;;;;5087321;28;27434;-54
2021/04/03 03:22:22;;;;;;;7.90;4.63;;;9.30;58.70;;;;;;5089510;28;27494;-50
2021/04/03 03:25:08;;;;;;;7.00;3.92;;;9.30;58.60;;;;;;5057836;28;27486;-51
2021/04/03 03:27:53;;;;;;;10.40;5.38;;;9.30;58.50;;;;;;5089375;28;27353;-52
2021/04/03 03:30:40;;;;;;;7.32;4.05;;;9.20;58.40;;;;;;5072428;28;27391;-54
2021/04/03 03:33:31;;;;;;;5.68;4.18;;;9.20;58.50;;;;;;5087268;28;27428;-56
2021/04/03 03:36:16;;;;;;;7.07;4.10;;;9.20;58.50;;;;;;5085986;28;27485;-54
2021/04/03 03:39:04;;;;;;;6.53;4.13;;;9.10;58.60;;;;;;5072798;28;27355;-55
2021/04/03 03:41:56;;;;;;;10.23;3.65;;;9.10;58.40;;;;;;5085973;28;27306;-51
2021/04/03 03:44:42;;;;;;;9.00;4.05;;;9.00;58.40;;;;;;5089516;28;27467;-53
2021/04/03 03:47:28;;;;;;;5.78;3.90;;;9.00;58.60;;;;;;5062977;28;27539;-50
2021/04/03 03:50:15;;;;;;;6.75;3.58;;;9.00;58.40;;;;;;5061651;28;27364;-55
2021/04/03 03:53:02;;;;;;;9.93;3.88;;;9.00;58.50;;;;;;5089609;28;27379;-53
2021/04/03 03:55:48;;;;;;;7.63;3.80;;;9.00;58.50;;;;;;5089364;28;27329;-55
2021/04/03 03:58:37;;;;;;;9.45;4.18;;;8.90;58.70;;;;;;5089317;28;27455;-55
2021/04/03 04:01:22;;;;;;;7.43;3.33;;;8.90;58.50;;;;;;5104559;28;27468;-54
2021/04/03 04:04:07;;;;;;;5.97;3.53;;;8.90;58.70;;;;;;5088925;28;27499;-54
2021/04/03 04:06:53;;;;;;;8.02;3.95;;;8.90;58.60;;;;;;5107780;28;27486;-54
2021/04/03 04:09:40;;;;;;;9.50;4.28;;;8.90;58.60;;;;;;5104629;28;27371;-53
2021/04/03 04:12:28;;;;;;;7.65;3.80;;;8.90;58.70;;;;;;5107108;28;27337;-53
2021/04/03 04:15:16;;;;;;;6.28;4.40;;;8.90;58.70;;;;;;5104158;28;27381;-52
2021/04/03 04:18:01;;;;;;;7.00;3.55;;;8.90;58.80;;;;;;5107118;28;27487;-49
2021/04/03 04:20:45;;;;;;;6.93;3.75;;;8.90;58.80;;;;;;5103926;28;27412;-51
2021/04/03 04:23:38;;;;;;;8.00;4.15;;;8.80;58.70;;;;;;5088461;28;27336;-52
2021/04/03 04:26:26;;;;;;;8.25;3.72;;;8.80;58.60;;;;;;5088709;28;27483;-53
2021/04/03 04:29:13;;;;;;;6.70;4.18;;;8.80;58.90;;;;;;5089014;28;27412;-53
2021/04/03 04:31:57;;;;;;;8.57;3.42;;;8.80;58.80;;;;;;5106962;28;27467;-52
2021/04/03 04:34:46;;;;;;;5.93;3.75;;;8.70;59.10;;;;;;5088386;28;27317;-55
2021/04/03 04:37:31;;;;;;;5.93;4.03;;;8.70;59.10;;;;;;5106920;28;27371;-56
2021/04/03 04:40:16;;;;;;;6.55;4.00;;;8.70;59.20;;;;;;5105316;28;27308;-53
2021/04/03 04:43:04;;;;;;;7.53;4.07;;;8.70;59.30;;;;;;5103850;28;27490;-51
2021/04/03 04:45:56;;;;;;;10.45;4.32;;;8.70;59.30;;;;;;5083601;28;27337;-52
2021/04/03 04:48:47;;;;;;;5.95;3.63;;;8.60;59.30;;;;;;5082215;28;27455;-53
2021/04/03 04:51:37;;;;;;;6.03;3.75;;;8.60;59.30;;;;;;5082335;28;27392;-54
2021/04/03 04:54:38;;;;;;;4.63;3.58;;;8.60;59.30;;;;;;5083264;28;27395;-51
2021/04/03 04:57:26;;;;;;;4.95;3.38;;;8.60;59.40;;;;;;5085092;28;27435;-55
2021/04/03 05:00:25;;;;;;;8.68;3.53;;;8.50;59.50;;;;;;5083102;28;27588;-55
2021/04/03 05:03:36;;;;;;;7.95;3.58;;;8.50;59.50;;;;;;5082948;28;27399;-54
2021/04/03 05:06:20;;;;;;;9.98;3.92;;;8.50;59.50;;;;;;5086284;28;27320;-54
2021/04/03 05:09:05;;;;;;;8.45;3.92;;;8.40;59.50;;;;;;5082810;28;27324;-55
2021/04/03 05:11:49;;;;;;;6.63;4.25;;;8.40;59.70;;;;;;5086355;28;27552;-55
2021/04/03 05:14:33;;;;;;;6.00;3.17;;;8.40;59.80;;;;;;5083186;28;27389;-51
2021/04/03 05:17:20;;;;;;;7.75;3.90;;;8.40;59.90;;;;;;5086321;28;27451;-55
2021/04/03 05:20:05;;;;;;;5.53;3.95;;;8.40;59.90;;;;;;5081874;28;27959;-52
2021/04/03 05:22:50;;;;;;;5.82;3.33;;;8.40;59.90;;;;;;5086249;28;27326;-51
2021/04/03 05:25:34;;;;;;;6.00;3.30;;;8.40;59.80;;;;;;5086015;28;27321;-55
2021/04/03 05:28:19;;;;;;;6.03;3.50;;;8.40;59.80;;;;;;5085864;28;27384;-52
2021/04/03 05:31:03;;;;;;;7.97;3.60;;;8.40;59.90;;;;;;5086044;28;27458;-54
2021/04/03 05:33:48;;;;;;;7.00;3.40;;;8.50;59.90;;;;;;5085724;28;27501;-55
2021/04/03 05:36:35;;;;;;;5.65;3.33;;;8.50;59.90;;;;;;5085629;28;27748;-56
2021/04/03 05:39:23;;;;;;;9.43;3.53;;;8.50;59.70;;;;;;5085166;28;27384;-56
2021/04/03 05:42:08;;;;;;;11.55;3.92;;;8.50;59.70;;;;;;5085795;28;27860;-56
2021/04/03 05:44:52;;;;;;;11.00;3.90;;;8.60;59.80;;;;;;5087732;28;27392;-57
2021/04/03 05:47:40;;;;;;;7.45;3.65;;;8.60;59.70;;;;;;5106097;28;27284;-57
2021/04/03 05:50:28;;;;;;;4.60;3.13;;;8.70;59.60;;;;;;5091331;28;27523;-54
2021/04/03 05:53:12;;;;;;;5.60;2.75;;;8.80;59.60;;;;;;5090493;28;27502;-55
2021/04/03 05:55:58;;;;;;;8.48;3.25;;;8.90;59.60;;;;;;5076198;28;27487;-55
2021/04/03 05:58:42;;;;;;;7.43;2.97;;;9.00;59.40;;;;;;5105808;28;27423;-55
2021/04/03 06:01:27;;;;;;;4.40;3.30;;;9.10;59.30;;;;;;5105938;28;27421;-57
2021/04/03 06:04:11;;;;;;;10.63;3.55;;;9.20;59.30;;;;;;5102505;28;27465;-56
2021/04/03 06:06:56;;;;;;;4.85;3.17;;;9.30;59.00;;;;;;5076156;28;27475;-57
2021/04/03 06:09:43;;;;;;;6.32;3.03;;;9.40;58.80;;;;;;5086707;28;27446;-56
2021/04/03 06:12:44;;;;;;;7.32;3.35;;;9.50;58.20;;;;;;5076131;28;27532;-55
2021/04/03 06:15:31;;;;;;;6.35;3.22;;;9.70;57.80;;;;;;5028311;28;27497;-56
2021/04/03 06:18:21;;;;;;;5.85;3.30;;;9.80;57.40;;;;;;5042558;28;27458;-56
2021/04/03 06:21:11;;;;;;;5.43;3.17;;;9.90;57.50;;;;;;5043083;28;27479;-57
2021/04/03 06:23:56;;;;;;;4.60;2.78;;;10.00;57.00;;;;;;5040291;28;27491;-55
2021/04/03 06:26:41;;;;;;;6.53;3.33;;;10.20;56.70;;;;;;5028760;28;27473;-56
2021/04/03 06:29:34;;;;;;;8.10;3.17;;;10.30;56.10;;;;;;5042787;28;27557;-56
2021/04/03 06:32:35;;;;;;;3.78;2.95;;;10.40;56.10;;;;;;5042726;28;27495;-57
2021/04/03 06:35:25;;;;;;;11.55;3.97;;;10.60;55.70;;;;;;5041289;28;27521;-57
2021/04/03 06:38:37;;;;;;;7.57;3.08;;;10.60;55.50;;;;;;5042205;28;27484;-56
2021/04/03 06:41:32;;;;;;;6.28;2.97;;;10.80;55.20;;;;;;5042074;28;27358;-57
2021/04/03 06:44:21;;;;;;;6.75;3.17;;;11.00;54.90;;;;;;5042877;28;27429;-57
2021/04/03 06:47:12;;;;;;;4.72;2.80;;;11.20;54.60;;;;;;5080399;28;27480;-57
2021/04/03 06:49:58;;;;;;;4.90;2.97;;;11.30;54.30;;;;;;5083286;28;28415;-57
2021/04/03 06:52:43;;;;;;;6.50;3.10;;;11.50;53.90;;;;;;5083808;28;27397;-57
2021/04/03 06:55:27;;;;;;;9.60;3.30;;;11.60;53.70;;;;;;5084822;28;27323;-52
2021/04/03 06:58:12;;;;;;;6.38;2.78;;;11.70;53.80;;;;;;5068606;28;27423;-56
2021/04/03 07:00:57;;;;;;;5.50;2.58;;;11.90;53.80;;;;;;5083696;28;27353;-55
2021/04/03 07:03:43;;;;;;;4.63;2.40;;;12.40;52.60;;;;;;5069507;28;27396;-54
2021/04/03 07:06:27;;;;;;;7.47;2.67;;;12.80;51.60;;;;;;5080363;28;27411;-55
2021/04/03 07:09:12;;;;;;;4.18;2.70;;;13.60;49.90;;;;;;5083448;28;27348;-54
2021/04/03 07:11:57;;;;;;;5.20;2.88;;;14.50;47.90;;;;;;5084474;28;27976;-54
2021/04/03 07:14:42;;;;;;;7.60;2.55;;;15.40;47.10;;;;;;5084374;28;27407;-53
2021/04/03 07:17:27;;;;;;;5.63;2.85;;;16.20;45.00;;;;;;5083216;28;27415;-56
2021/04/03 07:20:12;;;;;;;9.07;2.78;;;16.90;43.50;;;;;;5082919;28;27408;-56
2021/04/03 07:23:16;;;;;;;5.15;2.50;;;17.50;42.90;;;;;;5084392;28;27336;-55
2021/04/03 07:26:01;;;;;;;5.43;2.70;;;18.20;42.60;;;;;;5083921;28;27350;-54
2021/04/03 07:28:46;;;;;;;5.85;2.60;;;18.40;41.40;;;;;;5083415;28;27380;-53
2021/04/03 07:31:46;;;;;;;7.30;2.72;;;18.60;40.90;;;;;;5084056;28;27340;-50
2021/04/03 07:34:42;;;;;;;5.53;2.55;;;18.40;40.60;;;;;;5080795;28;27427;-53
2021/04/03 07:37:35;;;;;;;4.50;2.45;;;18.00;41.90;;;;;;5083261;28;27537;-55
2021/04/03 07:40:23;;;;;;;6.82;2.22;;;18.00;42.80;;;;;;5083817;28;27457;-53
2021/04/03 07:43:34;;;;;;;5.95;2.50;;;18.20;42.40;;;;;;5079769;28;26864;-53
2021/04/03 07:46:23;;;;;;;3.95;2.22;;;18.70;41.50;;;;;;5094924;28;27613;-54
2021/04/03 07:49:08;;;;;;;3.95;2.30;;;18.40;40.70;;;;;;5104198;28;27469;-54
2021/04/03 07:51:53;;;;;;;5.57;2.38;;;17.60;41.10;;;;;;5104048;28;27411;-55
2021/04/03 07:54:38;;;;;;;4.28;2.10;;;17.00;42.80;;;;;;5088661;28;27424;-56
2021/04/03 07:57:22;;;;;;;8.40;3.13;;;16.30;43.70;;;;;;5104026;28;27987;-52
2021/04/03 08:00:07;;;;;;;3.60;1.98;;;15.80;44.90;;;;;;5074783;28;27463;-53
2021/04/03 08:02:57;;;;;;;4.97;2.00;;;15.40;45.10;;;;;;5104150;28;27329;-55
2021/04/03 08:05:41;;;;;;;5.45;2.05;;;15.30;45.90;;;;;;5074571;28;27321;-55
2021/04/03 08:08:29;;;;;;;3.28;1.85;;;15.20;46.60;;;;;;5089102;28;27327;-55
2021/04/03 08:11:16;;;;;;;3.72;1.65;;;15.10;46.70;;;;;;5104321;28;27396;-50
2021/04/03 08:14:01;;;;;;;4.35;2.03;;;15.20;46.60;;;;;;5104237;28;27396;-56
2021/04/03 08:16:45;;;;;;;4.95;2.15;;;16.10;46.10;;;;;;5074392;28;27431;-58
2021/04/03 08:19:32;;;;;;;3.70;1.80;;;16.50;46.50;;;;;;5086419;28;27482;-56
2021/04/03 08:22:16;;;;;;;3.78;1.90;;;16.40;45.10;;;;;;5104712;28;27404;-55
2021/04/03 08:25:01;;;;;;;4.40;2.25;;;16.30;45.10;;;;;;5104040;28;27539;-54
2021/04/03 08:27:46;;;;;;;6.25;2.10;;;16.00;45.30;;;;;;5103834;28;27482;-53
2021/04/03 08:30:31;;;;;;;4.30;2.40;;;15.70;45.40;;;;;;5088712;28;27416;-58
2021/04/03 08:33:17;;;;;;;12.30;2.67;;;15.50;46.70;;;;;;5106450;27;27475;-55
2021/04/03 08:36:02;;;;;;;3.85;1.90;;;15.40;46.90;;;;;;5104098;28;27438;-52
2021/04/03 08:38:47;;;;;;;4.35;2.20;;;15.20;46.20;;;;;;5077783;28;27484;-54
2021/04/03 08:41:32;;;;;;;7.68;2.00;;;15.20;46.90;;;;;;5107392;28;27476;-54
2021/04/03 08:44:20;;;;;;;6.85;2.42;;;15.20;47.10;;;;;;5106955;28;27408;-55
2021/04/03 08:47:05;;;;;;;3.53;2.20;;;15.50;46.70;;;;;;5106213;28;27359;-55
2021/04/03 08:49:50;;;;;;;3.38;1.90;;;15.80;46.20;;;;;;5107640;28;27316;-56
2021/04/03 08:52:40;;;;;;;3.47;1.52;;;16.00;45.80;;;;;;5091766;28;27874;-53
2021/04/03 08:55:26;;;;;;;4.68;1.92;;;16.00;45.00;;;;;;5092188;28;27444;-54
2021/04/03 08:58:10;;;;;;;4.10;1.60;;;16.10;45.40;;;;;;5106946;28;27469;-53
2021/04/03 09:00:55;;;;;;;6.05;1.70;;;16.10;45.60;;;;;;5063066;28;27474;-52
2021/04/03 09:03:39;;;;;;;4.28;1.70;;;16.30;45.80;;;;;;5103546;28;27960;-53
2021/04/03 09:06:55;;;;;;;4.80;2.08;;;16.50;46.30;;;;;;5074074;28;27500;-58
2021/04/03 09:09:40;;;;;;;8.23;2.20;;;17.00;45.00;;;;;;5088423;28;27436;-52
2021/04/03 09:12:28;;;;;;;5.65;2.35;;;17.40;43.40;;;;;;5106947;28;27449;-54
2021/04/03 09:15:14;;;;;;;9.02;2.17;;;17.60;42.30;;;;;;5089981;28;27861;-54
2021/04/03 09:17:59;;;;;;;4.45;1.85;;;18.00;42.00;;;;;;5103233;28;27474;-56
2021/04/03 09:20:51;;;;;;;3.13;1.85;;;19.10;40.50;;;;;;5106735;28;27412;-53
2021/04/03 09:23:41;;;;;;;2.88;1.48;;;20.60;38.60;;;;;;5106641;28;27470;-53
2021/04/03 09:26:33;;;;;;;5.80;2.33;;;21.90;37.20;;;;;;5106459;28;27865;-54
2021/04/03 09:29:18;;;;;;;6.28;2.05;;;22.80;35.80;;;;;;5106137;28;27484;-54
2021/04/03 09:32:04;;;;;;;6.10;1.52;;;22.90;35.20;;;;;;5077082;28;26964;-51
2021/04/03 09:34:49;;;;;;;6.07;2.05;;;22.70;35.10;;;;;;5087615;28;27368;-54
2021/04/03 09:37:33;;;;;;;2.90;1.30;;;22.50;35.30;;;;;;5102421;28;27454;-55
2021/04/03 09:40:25;;;;;;;2.60;1.30;;;22.30;34.90;;;;;;5105949;28;27494;-51
2021/04/03 09:43:13;;;;;;;2.10;1.30;;;22.40;34.90;;;;;;5076744;27;27435;-54
2021/04/03 09:45:58;;;;;;;3.42;1.40;;;23.40;34.20;;;;;;5105489;28;27409;-54
2021/04/03 09:48:43;;;;;;;3.63;1.35;;;23.60;33.60;;;;;;5090764;28;27542;-53
2021/04/03 09:51:27;;;;;;;5.05;1.58;;;23.40;33.30;;;;;;5087463;28;27474;-53
2021/04/03 09:54:12;;;;;;;3.97;1.35;;;23.00;33.00;;;;;;5106158;28;27478;-53
2021/04/03 09:56:56;;;;;;;5.18;1.40;;;22.50;33.20;;;;;;5105678;28;27403;-53
2021/04/03 09:59:41;;;;;;;4.88;1.30;;;22.10;33.10;;;;;;5105709;28;27502;-51
2021/04/03 10:02:26;;;;;;;3.55;1.30;;;22.00;33.80;;;;;;5105598;28;27643;-54
2021/04/03 10:05:12;;;;;;;5.10;1.67;;;22.60;33.40;;;;;;5105953;28;27396;-52
2021/04/03 10:07:56;;;;;;;2.80;1.20;;;23.60;32.90;;;;;;5105836;28;27442;-54
2021/04/03 10:10:42;;;;;;;2.75;1.52;;;24.60;32.10;;;;;;5105106;28;27451;-50
2021/04/03 10:13:29;;;;;;;2.10;1.15;;;25.80;31.20;;;;;;5087260;28;27440;-54
2021/04/03 10:16:14;;;;;;;4.80;1.17;;;27.00;30.00;;;;;;5087226;28;27404;-55
2021/04/03 10:18:58;;;;;;;5.15;1.50;;;27.50;28.70;;;;;;5105604;28;27407;-53
2021/04/03 10:21:43;;;;;;;2.40;1.55;;;27.20;28.50;;;;;;5105324;28;28058;-55
2021/04/03 10:24:28;;;;;;;6.50;1.70;;;26.70;28.90;;;;;;5102266;28;27395;-54
2021/04/03 10:27:12;;;;;;;3.95;1.48;;;26.30;28.90;;;;;;5086781;28;26924;-54
2021/04/03 10:29:56;;;;;;;5.22;1.50;;;25.90;29.20;;;;;;5105471;28;27434;-55
2021/04/03 10:32:41;;;;;;;7.15;1.30;;;25.80;29.10;;;;;;5105136;28;27489;-54
2021/04/03 10:35:25;;;;;;;16.25;1.92;;;25.40;29.40;;;;;;5105352;28;27526;-67
2021/04/03 10:38:10;;;;;;;21.17;2.40;;;24.80;30.40;;;;;;5104713;28;27663;-62
2021/04/03 10:40:54;;;;;;;14.48;2.63;;;24.40;31.20;;;;;;5104998;28;27467;-60
2021/04/03 10:43:39;;;;;;;19.38;2.42;;;23.90;33.50;;;;;;5101857;28;27395;-63
2021/04/03 10:46:23;;;;;;;7.57;2.28;;;23.40;33.50;;;;;;5104378;28;27337;-61
2021/04/03 10:49:08;;;;;;;10.02;2.50;;;23.30;33.90;;;;;;5089836;28;27345;-61
2021/04/03 10:51:52;;;;;;;5.60;2.63;;;24.10;34.70;;;;;;5105240;28;27333;-67
2021/04/03 10:54:37;;;;;;;10.65;2.55;;;24.50;32.80;;;;;;5105081;27;27307;-69
2021/04/03 10:57:22;;;;;;;12.02;2.30;;;23.50;31.70;;;;;;5104946;28;27379;-69
2021/04/03 11:00:07;;;;;;;8.57;3.53;;;22.20;32.80;;;;;;5104908;28;27390;-68
2021/04/03 11:02:51;;;;;;;3.97;1.95;;;21.00;35.70;;;;;;5104894;28;27383;-69
2021/04/03 11:05:36;;;;;;;12.45;2.20;;;20.20;36.10;;;;;;5104526;28;27419;-68
2021/04/03 11:08:20;;;;;;;9.80;2.33;;;19.40;37.00;;;;;;5104981;28;27346;-67
2021/04/03 11:11:06;;;;;;;11.73;2.83;;;18.70;35.90;;;;;;5105493;28;27371;-69
2021/04/03 11:13:50;;;;;;;7.32;2.30;;;18.10;40.90;;;;;;5105680;28;27418;-69
2021/04/03 11:16:35;;;;;;;11.73;2.88;;;17.80;40.30;;;;;;5105156;28;27349;-67
2021/04/03 11:19:19;;;;;;;319.52;59.72;;;17.60;40.00;;;;;;5104865;28;27429;-68
2021/04/03 11:22:04;;;;;;;62.17;13.43;;;17.70;62.20;;;;;;5104894;28;27466;-68
2021/04/03 11:24:49;;;;;;;23.33;6.18;;;17.70;65.50;;;;;;5104939;28;27491;-67
2021/04/03 11:27:33;;;;;;;16.50;4.35;;;17.80;53.40;;;;;;5104707;28;27419;-66
2021/04/03 11:30:19;;;;;;;15.32;3.40;;;17.90;54.50;;;;;;5104606;28;27420;-66
2021/04/03 11:33:04;;;;;;;6.72;2.53;;;17.80;50.90;;;;;;5087784;28;27478;-68
2021/04/03 11:35:50;;;;;;;16.08;2.60;;;17.70;50.50;;;;;;5104593;28;27450;-66
2021/04/03 11:38:35;;;;;;;11.15;2.30;;;17.50;49.80;;;;;;5104248;28;27398;-67
2021/04/03 11:41:19;;;;;;;11.35;2.53;;;17.30;53.30;;;;;;5104263;28;27418;-61
2021/04/03 11:44:04;;;;;;;16.13;3.28;;;17.10;52.70;;;;;;5071976;28;27397;-62
2021/04/03 11:46:49;;;;;;;3.78;1.80;;;16.90;53.80;;;;;;5103706;28;27469;-64
2021/04/03 11:49:33;;;;;;;5.97;2.40;;;16.70;53.80;;;;;;5104137;28;27404;-63
2021/04/03 11:52:18;;;;;;;22.92;4.88;;;16.60;56.00;;;;;;5104445;28;27541;-63
2021/04/03 11:55:02;;;;;;;14.45;3.25;;;16.40;56.20;;;;;;5104130;28;27507;-60
2021/04/03 11:57:47;;;;;;;16.67;3.92;;;16.30;53.80;;;;;;5104187;28;27396;-63
2021/04/03 12:00:31;;;;;;;11.02;3.13;;;16.20;58.00;;;;;;5088453;28;27495;-64
2021/04/03 12:03:16;;;;;;;5.03;2.05;;;16.00;50.90;;;;;;5100986;28;27400;-63
2021/04/03 12:06:00;;;;;;;21.13;3.25;;;15.90;46.10;;;;;;5104098;28;27482;-62
2021/04/03 12:08:44;;;;;;;21.15;3.92;;;15.80;46.10;;;;;;5107176;28;27407;-63
2021/04/03 12:11:29;;;;;;;16.00;2.78;;;15.80;52.10;;;;;;5104104;28;27419;-63
2021/04/03 12:14:14;;;;;;;10.65;2.88;;;15.70;56.50;;;;;;5107477;28;27547;-63
2021/04/03 12:16:59;;;;;;;6.00;1.90;;;15.70;53.50;;;;;;5104382;28;26946;-63
2021/04/03 12:19:43;;;;;;;7.95;2.50;;;15.80;52.50;;;;;;5107655;28;27408;-64
2021/04/03 12:22:27;;;;;;;4.88;2.10;;;16.00;55.30;;;;;;5107293;28;27957;-65
2021/04/03 12:25:12;;;;;;;3.55;1.92;;;16.20;53.20;;;;;;5107551;28;27383;-65
2021/04/03 12:27:57;;;;;;;6.05;1.95;;;16.40;57.70;;;;;;5107087;28;27395;-65
2021/04/03 12:30:42;;;;;;;6.18;2.47;;;16.50;59.70;;;;;;5107601;28;27419;-63
2021/04/03 12:33:27;;;;;;;9.85;3.22;;;16.50;54.50;;;;;;5107337;28;27391;-61
2021/04/03 12:36:11;;;;;;;12.68;2.35;;;16.40;50.30;;;;;;5107375;28;27414;-62
2021/04/03 12:38:56;;;;;;;8.63;2.47;;;16.40;50.30;;;;;;5107290;28;27328;-63
2021/04/03 12:41:41;;;;;;;7.63;2.08;;;16.40;53.70;;;;;;5106833;28;27335;-63
2021/04/03 12:44:25;;;;;;;12.48;2.42;;;16.30;52.50;;;;;;5088613;28;27317;-61
2021/04/03 12:47:10;;;;;;;5.97;2.30;;;16.30;53.60;;;;;;5106172;28;27432;-59
2021/04/03 12:49:54;;;;;;;6.90;2.40;;;16.20;53.00;;;;;;5107067;28;27494;-59
2021/04/03 12:52:38;;;;;;;5.18;2.47;;;16.00;50.50;;;;;;5106621;28;27452;-58
2021/04/03 12:55:23;;;;;;;9.18;2.13;;;16.00;53.50;;;;;;5106895;28;27479;-58
2021/04/03 12:58:07;;;;;;;6.60;1.92;;;16.00;54.60;;;;;;5106598;28;27441;-58
2021/04/03 13:00:52;;;;;;;6.18;2.25;;;16.20;54.10;;;;;;5106919;28;27461;-58
2021/04/03 13:03:36;;;;;;;7.80;2.45;;;16.30;56.50;;;;;;5103530;28;27419;-58
2021/04/03 13:06:21;;;;;;;5.00;2.17;;;16.30;53.10;;;;;;5106765;28;27981;-58
2021/04/03 13:09:05;;;;;;;8.77;2.60;;;16.30;51.10;;;;;;5088216;28;27416;-59
2021/04/03 13:11:50;;;;;;;3.05;2.20;;;16.20;57.10;;;;;;5091625;28;27492;-59
2021/04/03 13:14:35;;;;;;;5.80;1.98;;;16.20;56.90;;;;;;5106786;28;27415;-59
2021/04/03 13:17:19;;;;;;;5.80;2.22;;;16.10;53.30;;;;;;5106261;28;27987;-58
2021/04/03 13:20:04;;;;;;;6.35;2.35;;;16.10;52.70;;;;;;5105486;27;27414;-61
2021/04/03 13:22:49;;;;;;;6.35;2.58;;;16.00;52.40;;;;;;5106257;28;27387;-59
2021/04/03 13:25:34;;;;;;;7.35;2.08;;;15.90;56.00;;;;;;5106264;28;27343;-59
2021/04/03 13:28:18;;;;;;;5.35;2.17;;;16.00;56.30;;;;;;5106481;28;27427;-59
2021/04/03 13:31:03;;;;;;;5.28;2.30;;;16.00;55.00;;;;;;5103138;28;27377;-59
2021/04/03 13:33:47;;;;;;;7.43;2.10;;;16.10;53.60;;;;;;5106464;28;27424;-59
2021/04/03 13:36:31;;;;;;;3.90;2.00;;;16.20;54.60;;;;;;5106027;28;27341;-59
2021/04/03 13:39:16;;;;;;;6.05;1.73;;;16.20;53.20;;;;;;5106051;28;27352;-59
2021/04/03 13:42:00;;;;;;;3.92;1.70;;;16.20;51.10;;;;;;5103026;28;27423;-59
2021/04/03 13:44:45;;;;;;;6.45;1.85;;;16.20;49.40;;;;;;5106351;28;27446;-59
2021/04/03 13:47:29;;;;;;;4.32;1.50;;;16.20;51.20;;;;;;5091110;28;27498;-59
2021/04/03 13:50:13;;;;;;;4.20;1.70;;;16.10;51.10;;;;;;5102838;28;27972;-59
2021/04/03 13:52:58;;;;;;;3.83;1.65;;;16.10;51.20;;;;;;5106054;28;27412;-59
2021/04/03 13:55:42;;;;;;;4.97;1.75;;;16.10;51.70;;;;;;5106146;28;27407;-59
2021/04/03 13:58:27;;;;;;;5.82;2.28;;;16.10;52.90;;;;;;5105162;27;27540;-60
2021/04/03 14:01:11;;;;;;;3.80;1.58;;;16.10;51.40;;;;;;5105889;28;27455;-59
2021/04/03 14:03:56;;;;;;;1.95;1.50;;;16.10;50.00;;;;;;5105935;28;27505;-59
2021/04/03 14:06:40;;;;;;;4.35;2.10;;;16.00;50.00;;;;;;5105597;28;27490;-59
2021/04/03 14:09:25;;;;;;;3.80;2.45;;;15.90;49.90;;;;;;5105599;28;27450;-59
2021/04/03 14:12:10;;;;;;;5.45;1.85;;;15.80;50.20;;;;;;5105748;28;27402;-59
2021/04/03 14:14:54;;;;;;;8.90;2.00;;;15.80;50.80;;;;;;5101977;28;27387;-59
2021/04/03 14:17:40;;;;;;;3.50;1.70;;;15.70;53.80;;;;;;5089382;28;27393;-59
2021/04/03 14:20:25;;;;;;;2.67;1.75;;;15.70;52.50;;;;;;5087281;28;27420;-59
2021/04/03 14:23:10;;;;;;;7.57;1.73;;;15.60;53.20;;;;;;5105310;28;27984;-59
2021/04/03 14:25:54;;;;;;;4.55;2.05;;;15.60;51.70;;;;;;5105494;28;27344;-59
2021/04/03 14:28:38;;;;;;;5.72;2.55;;;15.60;50.40;;;;;;5105540;28;27321;-59
2021/04/03 14:31:23;;;;;;;2.75;1.35;;;15.60;52.20;;;;;;5105209;28;27316;-59